sensor_id;sensor_type;location;lat;lon;timestamp;pressure;altitude;pressure_sealevel;temperature;humidity
60212;BME280;46079;48.686;15.598;2023-02-11T00:01:48;101794.47;;;18.76;33.43
60212;BME280;46079;48.686;15.598;2023-02-11T00:04:13;101797.91;;;18.77;33.39
60212;BME280;46079;48.686;15.598;2023-02-11T00:06:39;101791.91;;;18.75;33.48
60212;BME280;46079;48.686;15.598;2023-02-11T00:09:04;101788.34;;;18.76;33.36
60212;BME280;46079;48.686;15.598;2023-02-11T00:11:30;101791.91;;;18.75;33.52
60212;BME280;46079;48.686;15.598;2023-02-11T00:14:00;101793.59;;;18.76;33.19
60212;BME280;46079;48.686;15.598;2023-02-11T00:16:27;101785.72;;;18.76;33.26
60212;BME280;46079;48.686;15.598;2023-02-11T00:18:52;101784.88;;;18.75;33.44
60212;BME280;46079;48.686;15.598;2023-02-11T00:21:23;101786.66;;;18.75;33.22
60212;BME280;46079;48.686;15.598;2023-02-11T00:23:49;101791.06;;;18.74;33.30
60212;BME280;46079;48.686;15.598;2023-02-11T00:26:23;101797.16;;;18.75;33.25
60212;BME280;46079;48.686;15.598;2023-02-11T00:28:52;101801.53;;;18.74;33.43
60212;BME280;46079;48.686;15.598;2023-02-11T00:31:19;101797.22;;;18.73;33.46
60212;BME280;46079;48.686;15.598;2023-02-11T00:33:45;101802.53;;;18.72;33.33
60212;BME280;46079;48.686;15.598;2023-02-11T00:36:20;101804.19;;;18.73;33.29
60212;BME280;46079;48.686;15.598;2023-02-11T00:38:46;101805.16;;;18.72;33.38
60212;BME280;46079;48.686;15.598;2023-02-11T00:41:13;101805.06;;;18.73;33.26
60212;BME280;46079;48.686;15.598;2023-02-11T00:43:39;101797.28;;;18.72;33.41
60212;BME280;46079;48.686;15.598;2023-02-11T00:46:05;101798.97;;;18.73;33.39
60212;BME280;46079;48.686;15.598;2023-02-11T00:48:31;101798.06;;;18.74;33.36
60212;BME280;46079;48.686;15.598;2023-02-11T00:50:57;101791.19;;;18.71;33.40
60212;BME280;46079;48.686;15.598;2023-02-11T00:53:22;101794.66;;;18.72;33.36
60212;BME280;46079;48.686;15.598;2023-02-11T00:55:47;101792.88;;;18.72;33.22
60212;BME280;46079;48.686;15.598;2023-02-11T00:58:13;101785.09;;;18.71;33.48
60212;BME280;46079;48.686;15.598;2023-02-11T01:00:38;101794.72;;;18.70;33.39
60212;BME280;46079;48.686;15.598;2023-02-11T01:03:04;101787.72;;;18.71;33.19
60212;BME280;46079;48.686;15.598;2023-02-11T01:05:30;101781.63;;;18.70;33.42
60212;BME280;46079;48.686;15.598;2023-02-11T01:07:55;101792.09;;;18.70;33.46
60212;BME280;46079;48.686;15.598;2023-02-11T01:10:20;101793.88;;;18.70;33.31
60212;BME280;46079;48.686;15.598;2023-02-11T01:12:46;101783.41;;;18.70;33.28
60212;BME280;46079;48.686;15.598;2023-02-11T01:15:14;101778.16;;;18.70;33.46
60212;BME280;46079;48.686;15.598;2023-02-11T01:17:40;101771.22;;;18.69;33.42
60212;BME280;46079;48.686;15.598;2023-02-11T01:20:11;101764.28;;;18.67;33.25
60212;BME280;46079;48.686;15.598;2023-02-11T01:22:37;101764.28;;;18.67;33.33
60212;BME280;46079;48.686;15.598;2023-02-11T01:25:05;101767.78;;;18.68;33.28
60212;BME280;46079;48.686;15.598;2023-02-11T01:27:30;101768.69;;;18.67;33.35
60212;BME280;46079;48.686;15.598;2023-02-11T01:29:56;101780.00;;;18.67;33.38
60212;BME280;46079;48.686;15.598;2023-02-11T01:32:21;101775.69;;;18.66;33.29
60212;BME280;46079;48.686;15.598;2023-02-11T01:34:47;101772.25;;;18.66;33.43
60212;BME280;46079;48.686;15.598;2023-02-11T01:37:12;101768.78;;;18.65;33.26
60212;BME280;46079;48.686;15.598;2023-02-11T01:39:38;101762.69;;;18.65;33.37
60212;BME280;46079;48.686;15.598;2023-02-11T01:42:03;101761.81;;;18.64;33.39
60212;BME280;46079;48.686;15.598;2023-02-11T01:44:30;101759.19;;;18.64;33.42
60212;BME280;46079;48.686;15.598;2023-02-11T01:46:56;101764.44;;;18.64;33.29
60212;BME280;46079;48.686;15.598;2023-02-11T01:49:46;101757.44;;;18.65;33.33
60212;BME280;46079;48.686;15.598;2023-02-11T01:52:15;101756.56;;;18.64;33.36
60212;BME280;46079;48.686;15.598;2023-02-11T01:54:48;101748.72;;;18.64;33.47
60212;BME280;46079;48.686;15.598;2023-02-11T01:57:34;101740.84;;;18.64;33.26
60212;BME280;46079;48.686;15.598;2023-02-11T02:00:15;101735.63;;;18.64;33.26
60212;BME280;46079;48.686;15.598;2023-02-11T02:03:05;101733.09;;;18.63;33.26
60212;BME280;46079;48.686;15.598;2023-02-11T02:10:51;101734.88;;;18.62;33.29
60212;BME280;46079;48.686;15.598;2023-02-11T02:13:21;101741.03;;;18.61;33.43
60212;BME280;46079;48.686;15.598;2023-02-11T02:15:49;101733.16;;;18.61;33.36
60212;BME280;46079;48.686;15.598;2023-02-11T02:23:36;101730.53;;;18.61;33.33
60212;BME280;46079;48.686;15.598;2023-02-11T02:37:20;101706.28;;;18.58;33.49
60212;BME280;46079;48.686;15.598;2023-02-11T02:39:49;101696.63;;;18.58;33.19
60212;BME280;46079;48.686;15.598;2023-02-11T02:42:15;101695.78;;;18.58;33.33
60212;BME280;46079;48.686;15.598;2023-02-11T02:44:48;101683.53;;;18.58;33.45
60212;BME280;46079;48.686;15.598;2023-02-11T02:47:14;101682.75;;;18.56;33.20
60212;BME280;46079;48.686;15.598;2023-02-11T02:49:39;101677.50;;;18.56;33.37
60212;BME280;46079;48.686;15.598;2023-02-11T02:58:14;101673.22;;;18.55;33.30
60212;BME280;46079;48.686;15.598;2023-02-11T03:06:37;101669.75;;;18.55;33.16
60212;BME280;46079;48.686;15.598;2023-02-11T03:11:44;101667.97;;;18.55;33.40
60212;BME280;46079;48.686;15.598;2023-02-11T03:14:11;101667.97;;;18.55;33.23
60212;BME280;46079;48.686;15.598;2023-02-11T03:16:39;101663.69;;;18.54;33.34
60212;BME280;46079;48.686;15.598;2023-02-11T03:19:12;101661.06;;;18.54;33.27
60212;BME280;46079;48.686;15.598;2023-02-11T03:21:41;101661.91;;;18.55;33.32
60212;BME280;46079;48.686;15.598;2023-02-11T03:24:13;101649.81;;;18.52;33.29
60212;BME280;46079;48.686;15.598;2023-02-11T03:26:43;101651.47;;;18.53;33.13
60212;BME280;46079;48.686;15.598;2023-02-11T03:32:09;101643.72;;;18.52;33.20
60212;BME280;46079;48.686;15.598;2023-02-11T03:34:52;101638.56;;;18.50;33.28
60212;BME280;46079;48.686;15.598;2023-02-11T03:37:35;101639.50;;;18.49;33.12
60212;BME280;46079;48.686;15.598;2023-02-11T03:40:23;101635.94;;;18.50;33.22
60212;BME280;46079;48.686;15.598;2023-02-11T03:42:57;101635.09;;;18.50;33.37
60212;BME280;46079;48.686;15.598;2023-02-11T03:45:24;101640.34;;;18.50;33.16
60212;BME280;46079;48.686;15.598;2023-02-11T03:47:57;101632.53;;;18.48;33.19
60212;BME280;46079;48.686;15.598;2023-02-11T03:50:25;101625.56;;;18.49;33.29
60212;BME280;46079;48.686;15.598;2023-02-11T03:52:52;101612.44;;;18.49;33.22
60212;BME280;46079;48.686;15.598;2023-02-11T03:55:20;101608.97;;;18.48;33.33
60212;BME280;46079;48.686;15.598;2023-02-11T03:57:47;101619.44;;;18.48;33.34
60212;BME280;46079;48.686;15.598;2023-02-11T04:00:13;101609.06;;;18.47;33.27
60212;BME280;46079;48.686;15.598;2023-02-11T04:02:40;101607.28;;;18.47;33.31
60212;BME280;46079;48.686;15.598;2023-02-11T04:05:07;101602.88;;;18.48;33.20
60212;BME280;46079;48.686;15.598;2023-02-11T04:07:33;101599.41;;;18.47;33.34
60212;BME280;46079;48.686;15.598;2023-02-11T04:09:59;101597.63;;;18.48;33.35
60212;BME280;46079;48.686;15.598;2023-02-11T04:12:25;101594.19;;;18.47;33.23
60212;BME280;46079;48.686;15.598;2023-02-11T04:14:50;101599.41;;;18.47;33.30
60212;BME280;46079;48.686;15.598;2023-02-11T04:17:16;101605.59;;;18.46;33.17
60212;BME280;46079;48.686;15.598;2023-02-11T04:19:41;101609.97;;;18.45;33.15
60212;BME280;46079;48.686;15.598;2023-02-11T04:22:07;101612.59;;;18.45;33.13
60212;BME280;46079;48.686;15.598;2023-02-11T04:24:32;101613.47;;;18.46;33.34
60212;BME280;46079;48.686;15.598;2023-02-11T04:27:01;101613.47;;;18.46;33.25
60212;BME280;46079;48.686;15.598;2023-02-11T04:29:26;101611.75;;;18.45;33.15
60212;BME280;46079;48.686;15.598;2023-02-11T04:31:53;101611.75;;;18.45;33.29
60212;BME280;46079;48.686;15.598;2023-02-11T04:34:19;101611.75;;;18.45;33.03
60212;BME280;46079;48.686;15.598;2023-02-11T04:36:44;101604.72;;;18.45;33.28
60212;BME280;46079;48.686;15.598;2023-02-11T04:39:09;101599.59;;;18.44;33.26
60212;BME280;46079;48.686;15.598;2023-02-11T04:41:35;101602.22;;;18.44;33.03
60212;BME280;46079;48.686;15.598;2023-02-11T04:44:00;101602.22;;;18.44;33.30
60212;BME280;46079;48.686;15.598;2023-02-11T04:46:26;101602.22;;;18.44;33.14
60212;BME280;46079;48.686;15.598;2023-02-11T04:48:51;101594.34;;;18.44;33.07
60212;BME280;46079;48.686;15.598;2023-02-11T04:51:16;101594.41;;;18.42;33.10
60212;BME280;46079;48.686;15.598;2023-02-11T04:53:42;101590.97;;;18.42;33.20
60212;BME280;46079;48.686;15.598;2023-02-11T04:56:07;101598.81;;;18.42;33.04
60212;BME280;46079;48.686;15.598;2023-02-11T04:58:33;101597.13;;;18.41;33.24
60212;BME280;46079;48.686;15.598;2023-02-11T05:01:09;101595.34;;;18.41;33.09
60212;BME280;46079;48.686;15.598;2023-02-11T05:03:36;101595.34;;;18.41;33.04
60212;BME280;46079;48.686;15.598;2023-02-11T05:06:02;101596.19;;;18.42;32.87
60212;BME280;46079;48.686;15.598;2023-02-11T05:08:28;101590.19;;;18.40;32.84
60212;BME280;46079;48.686;15.598;2023-02-11T05:10:53;101585.81;;;18.40;33.18
60212;BME280;46079;48.686;15.598;2023-02-11T05:13:19;101592.81;;;18.40;33.38
60212;BME280;46079;48.686;15.598;2023-02-11T05:15:44;101592.81;;;18.40;33.32
60212;BME280;46079;48.686;15.598;2023-02-11T05:18:10;101591.97;;;18.39;33.13
60212;BME280;46079;48.686;15.598;2023-02-11T05:20:38;101600.66;;;18.40;33.29
60212;BME280;46079;48.686;15.598;2023-02-11T05:23:04;101588.50;;;18.39;33.23
60212;BME280;46079;48.686;15.598;2023-02-11T05:25:29;101594.69;;;18.38;33.12
60212;BME280;46079;48.686;15.598;2023-02-11T05:27:55;101594.69;;;18.38;33.18
60212;BME280;46079;48.686;15.598;2023-02-11T05:30:20;101594.69;;;18.38;33.01
60212;BME280;46079;48.686;15.598;2023-02-11T05:32:46;101593.81;;;18.37;33.18
60212;BME280;46079;48.686;15.598;2023-02-11T05:35:11;101595.59;;;18.37;33.13
60212;BME280;46079;48.686;15.598;2023-02-11T05:37:37;101593.09;;;18.35;33.23
60212;BME280;46079;48.686;15.598;2023-02-11T05:40:03;101589.53;;;18.36;33.25
60212;BME280;46079;48.686;15.598;2023-02-11T05:42:28;101593.94;;;18.36;33.23
60212;BME280;46079;48.686;15.598;2023-02-11T05:44:54;101582.59;;;18.35;33.14
60212;BME280;46079;48.686;15.598;2023-02-11T05:47:19;101586.06;;;18.36;33.22
60212;BME280;46079;48.686;15.598;2023-02-11T05:49:44;101582.69;;;18.34;33.26
60212;BME280;46079;48.686;15.598;2023-02-11T05:52:10;101578.28;;;18.34;33.13
60212;BME280;46079;48.686;15.598;2023-02-11T05:54:35;101574.75;;;18.35;33.20
60212;BME280;46079;48.686;15.598;2023-02-11T05:57:01;101570.41;;;18.34;33.09
60212;BME280;46079;48.686;15.598;2023-02-11T05:59:26;101566.03;;;18.35;33.20
60212;BME280;46079;48.686;15.598;2023-02-11T06:01:51;101556.47;;;18.34;33.17
60212;BME280;46079;48.686;15.598;2023-02-11T06:04:17;101551.25;;;18.34;33.15
60212;BME280;46079;48.686;15.598;2023-02-11T06:06:42;101566.97;;;18.34;33.36
60212;BME280;46079;48.686;15.598;2023-02-11T06:09:09;101558.25;;;18.33;33.14
60212;BME280;46079;48.686;15.598;2023-02-11T06:11:34;101546.00;;;18.34;33.22
60212;BME280;46079;48.686;15.598;2023-02-11T06:14:00;101539.91;;;18.33;33.16
60212;BME280;46079;48.686;15.598;2023-02-11T06:16:26;101535.63;;;18.32;33.29
60212;BME280;46079;48.686;15.598;2023-02-11T06:18:51;101525.16;;;18.32;33.30
60212;BME280;46079;48.686;15.598;2023-02-11T06:21:17;101515.50;;;18.33;33.23
60212;BME280;46079;48.686;15.598;2023-02-11T06:23:42;101506.81;;;18.32;33.23
60212;BME280;46079;48.686;15.598;2023-02-11T06:26:09;101505.03;;;18.33;33.23
60212;BME280;46079;48.686;15.598;2023-02-11T06:28:39;101512.03;;;18.32;33.37
60212;BME280;46079;48.686;15.598;2023-02-11T06:31:05;101512.88;;;18.33;33.20
60212;BME280;46079;48.686;15.598;2023-02-11T06:33:32;101509.44;;;18.32;33.34
60212;BME280;46079;48.686;15.598;2023-02-11T06:35:58;101515.56;;;18.31;33.01
60212;BME280;46079;48.686;15.598;2023-02-11T06:38:23;101501.56;;;18.32;33.28
60212;BME280;46079;48.686;15.598;2023-02-11T06:40:49;101512.88;;;18.33;33.17
60212;BME280;46079;48.686;15.598;2023-02-11T06:43:15;101505.94;;;18.32;33.09
60212;BME280;46079;48.686;15.598;2023-02-11T06:45:41;101513.72;;;18.33;33.13
60212;BME280;46079;48.686;15.598;2023-02-11T06:48:06;101514.56;;;18.34;33.23
60212;BME280;46079;48.686;15.598;2023-02-11T06:50:32;101499.78;;;18.33;33.17
60212;BME280;46079;48.686;15.598;2023-02-11T06:52:58;101511.09;;;18.33;33.30
60212;BME280;46079;48.686;15.598;2023-02-11T06:55:24;101517.19;;;18.34;33.05
60212;BME280;46079;48.686;15.598;2023-02-11T06:57:49;101510.16;;;18.34;33.18
60212;BME280;46079;48.686;15.598;2023-02-11T07:00:18;101504.09;;;18.34;33.10
60212;BME280;46079;48.686;15.598;2023-02-11T07:02:43;101507.53;;;18.34;33.09
60212;BME280;46079;48.686;15.598;2023-02-11T07:05:09;101510.16;;;18.34;33.22
60212;BME280;46079;48.686;15.598;2023-02-11T07:07:35;101499.69;;;18.34;33.11
60212;BME280;46079;48.686;15.598;2023-02-11T07:10:01;101506.63;;;18.35;33.04
60212;BME280;46079;48.686;15.598;2023-02-11T07:12:29;101497.00;;;18.36;33.09
60212;BME280;46079;48.686;15.598;2023-02-11T07:14:55;101491.75;;;18.36;33.04
60212;BME280;46079;48.686;15.598;2023-02-11T07:17:21;101489.97;;;18.36;33.28
60212;BME280;46079;48.686;15.598;2023-02-11T07:19:46;101490.81;;;18.37;33.21
60212;BME280;46079;48.686;15.598;2023-02-11T07:22:12;101505.63;;;18.38;32.93
60212;BME280;46079;48.686;15.598;2023-02-11T07:24:37;101498.66;;;18.37;32.99
60212;BME280;46079;48.686;15.598;2023-02-11T07:27:03;101495.13;;;18.38;33.12
60212;BME280;46079;48.686;15.598;2023-02-11T07:29:28;101502.06;;;18.39;33.14
60212;BME280;46079;48.686;15.598;2023-02-11T07:31:54;101496.81;;;18.39;33.17
60212;BME280;46079;48.686;15.598;2023-02-11T07:34:19;101494.19;;;18.39;33.11
60212;BME280;46079;48.686;15.598;2023-02-11T07:36:45;101488.00;;;18.40;33.16
60212;BME280;46079;48.686;15.598;2023-02-11T07:39:10;101481.94;;;18.39;33.02
60212;BME280;46079;48.686;15.598;2023-02-11T07:41:37;101474.91;;;18.40;33.00
60212;BME280;46079;48.686;15.598;2023-02-11T07:44:02;101477.53;;;18.40;32.95
60212;BME280;46079;48.686;15.598;2023-02-11T07:46:28;101488.88;;;18.40;33.19
60212;BME280;46079;48.686;15.598;2023-02-11T07:48:54;101492.34;;;18.41;33.44
60212;BME280;46079;48.686;15.598;2023-02-11T07:51:21;101487.09;;;18.41;32.89
60212;BME280;46079;48.686;15.598;2023-02-11T07:53:46;101499.25;;;18.42;33.20
60212;BME280;46079;48.686;15.598;2023-02-11T07:56:14;101510.56;;;18.42;33.13
60212;BME280;46079;48.686;15.598;2023-02-11T07:58:40;101518.44;;;18.42;33.21
60212;BME280;46079;48.686;15.598;2023-02-11T08:01:11;101525.38;;;18.43;33.18
60212;BME280;46079;48.686;15.598;2023-02-11T08:03:38;101526.22;;;18.44;33.03
60212;BME280;46079;48.686;15.598;2023-02-11T08:06:06;101529.78;;;18.43;33.01
60212;BME280;46079;48.686;15.598;2023-02-11T08:08:31;101529.69;;;18.44;33.02
60212;BME280;46079;48.686;15.598;2023-02-11T08:10:57;101521.81;;;18.44;33.01
60212;BME280;46079;48.686;15.598;2023-02-11T08:13:22;101523.50;;;18.45;33.29
60212;BME280;46079;48.686;15.598;2023-02-11T08:15:48;101512.19;;;18.45;33.13
60212;BME280;46079;48.686;15.598;2023-02-11T08:18:13;101506.94;;;18.45;33.07
60212;BME280;46079;48.686;15.598;2023-02-11T08:20:39;101502.53;;;18.45;33.11
60212;BME280;46079;48.686;15.598;2023-02-11T08:23:06;101492.00;;;18.47;33.14
60212;BME280;46079;48.686;15.598;2023-02-11T08:25:32;101492.94;;;18.46;33.18
60212;BME280;46079;48.686;15.598;2023-02-11T08:27:57;101492.94;;;18.46;33.03
60212;BME280;46079;48.686;15.598;2023-02-11T08:30:23;101476.25;;;18.47;33.03
60212;BME280;46079;48.686;15.598;2023-02-11T08:32:49;101477.94;;;18.48;33.02
60212;BME280;46079;48.686;15.598;2023-02-11T08:35:15;101473.66;;;18.47;33.04
60212;BME280;46079;48.686;15.598;2023-02-11T08:37:41;101481.50;;;18.47;33.25
60212;BME280;46079;48.686;15.598;2023-02-11T08:40:06;101488.44;;;18.48;33.05
60212;BME280;46079;48.686;15.598;2023-02-11T08:42:32;101487.50;;;18.49;33.02
60212;BME280;46079;48.686;15.598;2023-02-11T08:44:57;101492.75;;;18.49;32.99
60212;BME280;46079;48.686;15.598;2023-02-11T08:47:23;101496.13;;;18.51;33.00
60212;BME280;46079;48.686;15.598;2023-02-11T08:49:48;101496.13;;;18.51;33.15
60212;BME280;46079;48.686;15.598;2023-02-11T08:52:13;101487.34;;;18.52;33.13
60212;BME280;46079;48.686;15.598;2023-02-11T08:54:39;101490.72;;;18.54;33.08
60212;BME280;46079;48.686;15.598;2023-02-11T08:57:04;101487.16;;;18.55;32.98
60212;BME280;46079;48.686;15.598;2023-02-11T08:59:30;101471.44;;;18.55;33.14
60212;BME280;46079;48.686;15.598;2023-02-11T09:01:55;101477.50;;;18.56;33.12
60212;BME280;46079;48.686;15.598;2023-02-11T09:04:22;101477.50;;;18.56;33.06
60212;BME280;46079;48.686;15.598;2023-02-11T09:06:47;101487.91;;;18.57;32.92
60212;BME280;46079;48.686;15.598;2023-02-11T09:09:14;101483.53;;;18.58;33.15
60212;BME280;46079;48.686;15.598;2023-02-11T09:11:40;101489.53;;;18.60;33.08
60212;BME280;46079;48.686;15.598;2023-02-11T09:14:06;101483.44;;;18.59;33.09
60212;BME280;46079;48.686;15.598;2023-02-11T09:16:34;101482.41;;;18.62;32.95
60212;BME280;46079;48.686;15.598;2023-02-11T09:19:01;101476.31;;;18.61;33.02
60212;BME280;46079;48.686;15.598;2023-02-11T09:21:27;101473.63;;;18.63;32.88
60212;BME280;46079;48.686;15.598;2023-02-11T09:23:53;101474.47;;;18.63;33.13
60212;BME280;46079;48.686;15.598;2023-02-11T09:26:21;101477.06;;;18.63;33.00
60212;BME280;46079;48.686;15.598;2023-02-11T09:28:47;101470.88;;;18.64;32.88
60212;BME280;46079;48.686;15.598;2023-02-11T09:31:19;101476.13;;;18.64;32.80
60212;BME280;46079;48.686;15.598;2023-02-11T09:33:47;101478.75;;;18.64;32.99
60212;BME280;46079;48.686;15.598;2023-02-11T09:36:19;101464.75;;;18.65;32.94
60212;BME280;46079;48.686;15.598;2023-02-11T09:38:45;101460.34;;;18.66;32.89
60212;BME280;46079;48.686;15.598;2023-02-11T09:43:46;101466.41;;;18.66;33.02
60212;BME280;46079;48.686;15.598;2023-02-11T09:46:15;101456.78;;;18.67;32.95
60212;BME280;46079;48.686;15.598;2023-02-11T09:48:43;101453.31;;;18.66;32.93
60212;BME280;46079;48.686;15.598;2023-02-11T09:53:50;101440.97;;;18.69;32.90
60212;BME280;46079;48.686;15.598;2023-02-11T09:56:21;101435.72;;;18.69;32.96
60212;BME280;46079;48.686;15.598;2023-02-11T09:58:47;101429.53;;;18.70;32.97
60212;BME280;46079;48.686;15.598;2023-02-11T10:06:55;101439.94;;;18.71;33.02
60212;BME280;46079;48.686;15.598;2023-02-11T10:15:17;101421.50;;;18.73;32.92
60212;BME280;46079;48.686;15.598;2023-02-11T10:20:38;101415.25;;;18.75;32.79
60212;BME280;46079;48.686;15.598;2023-02-11T10:23:20;101406.56;;;18.75;33.00
60212;BME280;46079;48.686;15.598;2023-02-11T10:25:51;101410.84;;;18.76;32.82
60212;BME280;46079;48.686;15.598;2023-02-11T10:28:30;101419.47;;;18.78;32.88
60212;BME280;46079;48.686;15.598;2023-02-11T10:31:07;101405.53;;;18.77;33.09
60212;BME280;46079;48.686;15.598;2023-02-11T10:36:18;101399.34;;;18.78;32.86
60212;BME280;46079;48.686;15.598;2023-02-11T10:38:45;101397.59;;;18.79;32.96
60212;BME280;46079;48.686;15.598;2023-02-11T10:41:21;101400.94;;;18.81;32.78
60212;BME280;46079;48.686;15.598;2023-02-11T10:43:50;101387.00;;;18.80;32.88
60212;BME280;46079;48.686;15.598;2023-02-11T10:46:20;101393.06;;;18.81;32.93
60212;BME280;46079;48.686;15.598;2023-02-11T10:48:48;101382.59;;;18.81;32.87
60212;BME280;46079;48.686;15.598;2023-02-11T10:51:21;101384.28;;;18.82;32.95
60212;BME280;46079;48.686;15.598;2023-02-11T10:54:10;101390.38;;;18.82;32.98
60212;BME280;46079;48.686;15.598;2023-02-11T10:56:46;101392.06;;;18.83;32.69
60212;BME280;46079;48.686;15.598;2023-02-11T10:59:30;101385.03;;;18.84;32.74
60212;BME280;46079;48.686;15.598;2023-02-11T11:01:58;101381.47;;;18.85;32.76
60212;BME280;46079;48.686;15.598;2023-02-11T11:07:29;101366.59;;;18.85;32.91
60212;BME280;46079;48.686;15.598;2023-02-11T11:10:04;101359.56;;;18.86;32.82
60212;BME280;46079;48.686;15.598;2023-02-11T11:15:28;101349.84;;;18.88;32.86
60212;BME280;46079;48.686;15.598;2023-02-11T11:18:16;101335.78;;;18.89;32.81
60212;BME280;46079;48.686;15.598;2023-02-11T11:21:13;101325.28;;;18.89;32.69
60212;BME280;46079;48.686;15.598;2023-02-11T11:23:39;101333.06;;;18.91;32.91
60212;BME280;46079;48.686;15.598;2023-02-11T11:26:12;101326.03;;;18.91;32.90
60212;BME280;46079;48.686;15.598;2023-02-11T11:28:42;101325.22;;;18.91;32.94
60212;BME280;46079;48.686;15.598;2023-02-11T11:31:18;101318.19;;;18.91;32.97
60212;BME280;46079;48.686;15.598;2023-02-11T11:33:45;101311.16;;;18.92;32.80
60212;BME280;46079;48.686;15.598;2023-02-11T11:36:15;101294.59;;;18.91;32.89
60212;BME280;46079;48.686;15.598;2023-02-11T11:38:48;101296.25;;;18.92;32.93
60212;BME280;46079;48.686;15.598;2023-02-11T11:41:25;101289.25;;;18.93;32.87
60212;BME280;46079;48.686;15.598;2023-02-11T11:46:41;101299.63;;;18.94;32.88
60212;BME280;46079;48.686;15.598;2023-02-11T11:49:24;101291.78;;;18.94;32.88
60212;BME280;46079;48.686;15.598;2023-02-11T11:52:13;101290.84;;;18.95;33.00
60212;BME280;46079;48.686;15.598;2023-02-11T11:54:42;101286.44;;;18.96;32.86
60212;BME280;46079;48.686;15.598;2023-02-11T11:57:13;101287.28;;;18.96;32.75
60212;BME280;46079;48.686;15.598;2023-02-11T11:59:40;101276.78;;;18.96;32.91
60212;BME280;46079;48.686;15.598;2023-02-11T12:13:48;101262.66;;;18.99;32.84
60212;BME280;46079;48.686;15.598;2023-02-11T12:24:36;101255.63;;;18.99;32.74
60212;BME280;46079;48.686;15.598;2023-02-11T12:30:20;101258.25;;;18.99;32.90
60212;BME280;46079;48.686;15.598;2023-02-11T12:32:57;101252.03;;;19.00;32.72
60212;BME280;46079;48.686;15.598;2023-02-11T12:35:58;101252.03;;;19.00;32.97
60212;BME280;46079;48.686;15.598;2023-02-11T12:38:49;101243.34;;;19.00;32.78
60212;BME280;46079;48.686;15.598;2023-02-11T12:43:43;101239.81;;;19.01;32.86
60212;BME280;46079;48.686;15.598;2023-02-11T12:49:41;101238.03;;;19.01;32.98
60212;BME280;46079;48.686;15.598;2023-02-11T12:52:26;101238.03;;;19.01;33.03
60212;BME280;46079;48.686;15.598;2023-02-11T12:55:28;101235.41;;;19.01;33.07
60212;BME280;46079;48.686;15.598;2023-02-11T12:57:57;101247.56;;;19.02;32.82
60212;BME280;46079;48.686;15.598;2023-02-11T13:03:19;101239.69;;;19.02;33.17
60212;BME280;46079;48.686;15.598;2023-02-11T13:05:52;101237.06;;;19.02;33.02
60212;BME280;46079;48.686;15.598;2023-02-11T13:08:39;101242.31;;;19.02;33.14
60212;BME280;46079;48.686;15.598;2023-02-11T13:11:21;101258.03;;;19.02;33.00
60212;BME280;46079;48.686;15.598;2023-02-11T13:14:00;101257.22;;;19.02;33.17
60212;BME280;46079;48.686;15.598;2023-02-11T13:16:47;101264.13;;;19.03;33.06
60212;BME280;46079;48.686;15.598;2023-02-11T13:19:33;101257.13;;;19.03;32.84
60212;BME280;46079;48.686;15.598;2023-02-11T13:24:36;101250.19;;;19.02;32.98
60212;BME280;46079;48.686;15.598;2023-02-11T13:27:16;101252.72;;;19.04;33.19
60212;BME280;46079;48.686;15.598;2023-02-11T13:30:17;101252.72;;;19.04;32.97
60212;BME280;46079;48.686;15.598;2023-02-11T13:35:36;101262.38;;;19.03;32.95
60212;BME280;46079;48.686;15.598;2023-02-11T13:40:41;101263.22;;;19.04;32.90
60212;BME280;46079;48.686;15.598;2023-02-11T13:43:22;101267.63;;;19.03;33.05
60212;BME280;46079;48.686;15.598;2023-02-11T13:45:49;101264.88;;;19.05;33.18
60212;BME280;46079;48.686;15.598;2023-02-11T13:48:23;101266.66;;;19.04;33.01
60212;BME280;46079;48.686;15.598;2023-02-11T13:50:52;101269.28;;;19.04;32.90
60212;BME280;46079;48.686;15.598;2023-02-11T13:53:19;101261.41;;;19.04;32.95
60212;BME280;46079;48.686;15.598;2023-02-11T13:55:47;101248.41;;;19.03;33.04
60212;BME280;46079;48.686;15.598;2023-02-11T14:14:29;101258.81;;;19.04;32.97
60212;BME280;46079;48.686;15.598;2023-02-11T14:22:16;101251.88;;;19.03;33.00
60212;BME280;46079;48.686;15.598;2023-02-11T14:24:50;101237.81;;;19.04;32.91
60212;BME280;46079;48.686;15.598;2023-02-11T14:30:07;101236.16;;;19.03;33.12
60212;BME280;46079;48.686;15.598;2023-02-11T14:33:13;101241.41;;;19.03;33.00
60212;BME280;46079;48.686;15.598;2023-02-11T14:41:22;101235.28;;;19.03;33.11
60212;BME280;46079;48.686;15.598;2023-02-11T14:43:52;101230.91;;;19.03;33.12
60212;BME280;46079;48.686;15.598;2023-02-11T14:46:21;101239.59;;;19.04;33.11
60212;BME280;46079;48.686;15.598;2023-02-11T14:48:52;101233.53;;;19.03;33.05
60212;BME280;46079;48.686;15.598;2023-02-11T14:51:25;101228.28;;;19.03;33.15
60212;BME280;46079;48.686;15.598;2023-02-11T14:53:54;101214.31;;;19.03;33.12
60212;BME280;46079;48.686;15.598;2023-02-11T14:56:27;101209.06;;;19.03;33.04
60212;BME280;46079;48.686;15.598;2023-02-11T14:58:56;101210.84;;;19.02;33.20
60212;BME280;46079;48.686;15.598;2023-02-11T15:01:34;101213.47;;;19.02;32.98
60212;BME280;46079;48.686;15.598;2023-02-11T15:04:02;101213.47;;;19.02;33.11
60212;BME280;46079;48.686;15.598;2023-02-11T15:06:39;101209.06;;;19.03;32.99
60212;BME280;46079;48.686;15.598;2023-02-11T15:09:13;101208.22;;;19.02;32.91
60212;BME280;46079;48.686;15.598;2023-02-11T15:11:43;101213.47;;;19.02;33.21